Карточка аэропорта UNOO

Внимание!
Информация на этой странице в стадии наполнения.
Если вы не увидели какой-то информации, или заметили неточность - пожалуйста сообщите нам!
Спасибо!
Команда RU-STAFF
Название аэропортаЦентральный
Название аэропорта (англ.)Tsentralny
Превышение312 ft. (95.1 m.)
Координаты54°58.02', 73°18.6'
Высота перехода900m
Эшелон переходаQFE>=733:FL50; QFE<733:FL60;
Коды ответчика5440-5457
Зона ОрВДНовосибирск РПИ (UNNT)
Данные METARUNOO 212000Z 34005MPS 9999 BKN016 BKN027CB 17/14 Q1005 R25/250055 NOSIG RMK QFE746
Проноз погоды (TAF)UNOO 211655Z 2118/2218 33003G10MPS 8000 SCT008 SCT020CB TEMPO 2120/2202 0500 FG VV003 BECMG 2212/2214 02003G08MPS
NOTAMshow/hide NOTAM
AWOS   TABLE

Информация о ВПП

ВПП Длина ВПП (м.) Покрытие Курс ВПП Частота ILS
072501Асфальтобетон65108.3
252501Асфальтобетон245110.1

Диспетчерские позиции

Позывной Наименование органа УВД Частота
UNOO_R_APPОмск-Круг119.050
UNOO_APPОмск-Подход131.200
UNOO_GNDОмск-Руление121.700
UNOO_TWRОмск-Старт119.000



Спутниковое изображение